sensor_id;sensor_type;location;lat;lon;timestamp;P1;durP1;ratioP1;P2;durP2;ratioP2
577;SDS011;275;48.492;9.214;2024-03-25T00:00:59;4.57;;;3.08;;
577;SDS011;275;48.492;9.214;2024-03-25T00:03:26;6.10;;;3.30;;
577;SDS011;275;48.492;9.214;2024-03-25T00:05:52;5.10;;;3.37;;
577;SDS011;275;48.492;9.214;2024-03-25T00:08:18;6.93;;;3.00;;
577;SDS011;275;48.492;9.214;2024-03-25T00:10:44;4.57;;;3.20;;
577;SDS011;275;48.492;9.214;2024-03-25T00:13:11;6.03;;;3.17;;
577;SDS011;275;48.492;9.214;2024-03-25T00:15:38;4.60;;;3.10;;
577;SDS011;275;48.492;9.214;2024-03-25T00:18:05;6.30;;;3.88;;
577;SDS011;275;48.492;9.214;2024-03-25T00:20:31;5.03;;;3.30;;
577;SDS011;275;48.492;9.214;2024-03-25T00:22:58;4.78;;;4.13;;
577;SDS011;275;48.492;9.214;2024-03-25T00:25:24;5.85;;;3.25;;
577;SDS011;275;48.492;9.214;2024-03-25T00:27:51;5.53;;;2.90;;
577;SDS011;275;48.492;9.214;2024-03-25T00:30:17;5.15;;;3.20;;
577;SDS011;275;48.492;9.214;2024-03-25T00:32:46;5.20;;;3.78;;
577;SDS011;275;48.492;9.214;2024-03-25T00:35:11;5.53;;;3.53;;
577;SDS011;275;48.492;9.214;2024-03-25T00:37:38;4.55;;;3.13;;
577;SDS011;275;48.492;9.214;2024-03-25T00:40:05;5.17;;;3.30;;
577;SDS011;275;48.492;9.214;2024-03-25T00:42:33;6.57;;;3.72;;
577;SDS011;275;48.492;9.214;2024-03-25T00:44:59;5.63;;;3.70;;
577;SDS011;275;48.492;9.214;2024-03-25T00:47:26;5.35;;;3.42;;
577;SDS011;275;48.492;9.214;2024-03-25T00:49:53;7.57;;;3.53;;
577;SDS011;275;48.492;9.214;2024-03-25T00:52:20;7.82;;;3.63;;
577;SDS011;275;48.492;9.214;2024-03-25T00:54:46;4.13;;;3.47;;
577;SDS011;275;48.492;9.214;2024-03-25T00:57:13;5.65;;;3.55;;
577;SDS011;275;48.492;9.214;2024-03-25T00:59:38;4.67;;;3.67;;
577;SDS011;275;48.492;9.214;2024-03-25T01:02:05;3.83;;;3.17;;
577;SDS011;275;48.492;9.214;2024-03-25T01:04:31;7.13;;;3.87;;
577;SDS011;275;48.492;9.214;2024-03-25T01:06:59;5.85;;;4.10;;
577;SDS011;275;48.492;9.214;2024-03-25T01:09:25;4.70;;;3.20;;
577;SDS011;275;48.492;9.214;2024-03-25T01:11:52;4.68;;;3.75;;
577;SDS011;275;48.492;9.214;2024-03-25T01:14:18;5.57;;;3.37;;
577;SDS011;275;48.492;9.214;2024-03-25T01:16:44;8.07;;;2.95;;
577;SDS011;275;48.492;9.214;2024-03-25T01:19:10;3.50;;;2.90;;
577;SDS011;275;48.492;9.214;2024-03-25T01:21:37;5.45;;;3.10;;
577;SDS011;275;48.492;9.214;2024-03-25T01:24:04;4.50;;;2.77;;
577;SDS011;275;48.492;9.214;2024-03-25T01:26:31;5.40;;;3.40;;
577;SDS011;275;48.492;9.214;2024-03-25T01:28:57;5.37;;;3.27;;
577;SDS011;275;48.492;9.214;2024-03-25T01:31:24;7.50;;;3.63;;
577;SDS011;275;48.492;9.214;2024-03-25T01:33:50;7.27;;;4.40;;
577;SDS011;275;48.492;9.214;2024-03-25T01:36:17;5.25;;;3.50;;
577;SDS011;275;48.492;9.214;2024-03-25T01:38:43;5.75;;;3.85;;
577;SDS011;275;48.492;9.214;2024-03-25T01:41:12;5.38;;;3.10;;
577;SDS011;275;48.492;9.214;2024-03-25T01:43:40;7.15;;;3.70;;
577;SDS011;275;48.492;9.214;2024-03-25T01:46:07;5.95;;;3.72;;
577;SDS011;275;48.492;9.214;2024-03-25T01:48:33;4.13;;;3.50;;
577;SDS011;275;48.492;9.214;2024-03-25T01:51:00;9.15;;;3.70;;
577;SDS011;275;48.492;9.214;2024-03-25T01:53:27;6.50;;;3.90;;
577;SDS011;275;48.492;9.214;2024-03-25T01:55:55;6.25;;;4.07;;
577;SDS011;275;48.492;9.214;2024-03-25T01:58:23;4.57;;;3.70;;
577;SDS011;275;48.492;9.214;2024-03-25T02:00:51;4.53;;;3.28;;
577;SDS011;275;48.492;9.214;2024-03-25T02:03:17;7.65;;;4.30;;
577;SDS011;275;48.492;9.214;2024-03-25T02:05:44;4.30;;;3.40;;
577;SDS011;275;48.492;9.214;2024-03-25T02:08:10;4.90;;;3.67;;
577;SDS011;275;48.492;9.214;2024-03-25T02:10:38;5.53;;;4.10;;
577;SDS011;275;48.492;9.214;2024-03-25T02:13:04;5.47;;;3.10;;
577;SDS011;275;48.492;9.214;2024-03-25T02:15:33;4.40;;;2.95;;
577;SDS011;275;48.492;9.214;2024-03-25T02:18:00;5.20;;;3.60;;
577;SDS011;275;48.492;9.214;2024-03-25T02:20:27;4.82;;;3.30;;
577;SDS011;275;48.492;9.214;2024-03-25T02:22:53;5.53;;;3.90;;
577;SDS011;275;48.492;9.214;2024-03-25T02:25:21;6.18;;;3.85;;
577;SDS011;275;48.492;9.214;2024-03-25T02:27:49;6.47;;;3.88;;
577;SDS011;275;48.492;9.214;2024-03-25T02:30:16;5.32;;;3.92;;
577;SDS011;275;48.492;9.214;2024-03-25T02:32:42;6.32;;;3.88;;
577;SDS011;275;48.492;9.214;2024-03-25T02:35:10;4.22;;;3.17;;
577;SDS011;275;48.492;9.214;2024-03-25T02:37:39;4.88;;;3.40;;
577;SDS011;275;48.492;9.214;2024-03-25T02:40:07;5.68;;;3.35;;
577;SDS011;275;48.492;9.214;2024-03-25T02:42:34;5.13;;;2.75;;
577;SDS011;275;48.492;9.214;2024-03-25T02:45:04;5.45;;;3.35;;
577;SDS011;275;48.492;9.214;2024-03-25T02:47:30;5.15;;;3.00;;
577;SDS011;275;48.492;9.214;2024-03-25T02:49:57;5.90;;;2.85;;
577;SDS011;275;48.492;9.214;2024-03-25T02:52:24;6.23;;;3.10;;
577;SDS011;275;48.492;9.214;2024-03-25T02:54:51;10.70;;;4.22;;
577;SDS011;275;48.492;9.214;2024-03-25T02:57:16;4.03;;;3.17;;
577;SDS011;275;48.492;9.214;2024-03-25T02:59:43;5.25;;;3.33;;
577;SDS011;275;48.492;9.214;2024-03-25T03:02:10;5.30;;;3.47;;
577;SDS011;275;48.492;9.214;2024-03-25T03:04:37;7.70;;;3.75;;
577;SDS011;275;48.492;9.214;2024-03-25T03:07:03;6.67;;;3.80;;
577;SDS011;275;48.492;9.214;2024-03-25T03:09:30;6.05;;;3.03;;
577;SDS011;275;48.492;9.214;2024-03-25T03:11:56;5.30;;;3.83;;
577;SDS011;275;48.492;9.214;2024-03-25T03:14:23;6.75;;;3.22;;
577;SDS011;275;48.492;9.214;2024-03-25T03:16:49;6.53;;;3.10;;
577;SDS011;275;48.492;9.214;2024-03-25T03:19:20;4.68;;;3.22;;
577;SDS011;275;48.492;9.214;2024-03-25T03:21:46;7.20;;;3.88;;
577;SDS011;275;48.492;9.214;2024-03-25T03:24:13;7.90;;;4.05;;
577;SDS011;275;48.492;9.214;2024-03-25T03:26:39;5.40;;;3.53;;
577;SDS011;275;48.492;9.214;2024-03-25T03:29:06;6.00;;;3.40;;
577;SDS011;275;48.492;9.214;2024-03-25T03:31:31;6.77;;;3.67;;
577;SDS011;275;48.492;9.214;2024-03-25T03:33:59;5.50;;;3.67;;
577;SDS011;275;48.492;9.214;2024-03-25T03:36:26;4.83;;;4.03;;
577;SDS011;275;48.492;9.214;2024-03-25T03:38:53;6.22;;;3.08;;
577;SDS011;275;48.492;9.214;2024-03-25T03:41:19;9.77;;;3.77;;
577;SDS011;275;48.492;9.214;2024-03-25T03:43:45;5.50;;;5.00;;
577;SDS011;275;48.492;9.214;2024-03-25T03:46:11;7.23;;;6.50;;
577;SDS011;275;48.492;9.214;2024-03-25T03:48:38;7.25;;;6.50;;
577;SDS011;275;48.492;9.214;2024-03-25T03:51:04;8.60;;;6.53;;
577;SDS011;275;48.492;9.214;2024-03-25T03:53:32;10.00;;;8.82;;
577;SDS011;275;48.492;9.214;2024-03-25T03:56:00;11.98;;;8.57;;
577;SDS011;275;48.492;9.214;2024-03-25T03:58:28;14.93;;;12.23;;
577;SDS011;275;48.492;9.214;2024-03-25T04:00:54;17.77;;;14.27;;
577;SDS011;275;48.492;9.214;2024-03-25T04:03:21;16.33;;;14.57;;
577;SDS011;275;48.492;9.214;2024-03-25T04:05:47;15.30;;;13.80;;
577;SDS011;275;48.492;9.214;2024-03-25T04:08:14;15.57;;;13.93;;
577;SDS011;275;48.492;9.214;2024-03-25T04:10:42;13.77;;;11.50;;
577;SDS011;275;48.492;9.214;2024-03-25T04:13:09;12.73;;;10.90;;
577;SDS011;275;48.492;9.214;2024-03-25T04:15:36;13.55;;;10.77;;
577;SDS011;275;48.492;9.214;2024-03-25T04:18:04;12.85;;;10.15;;
577;SDS011;275;48.492;9.214;2024-03-25T04:20:32;8.38;;;7.40;;
577;SDS011;275;48.492;9.214;2024-03-25T04:23:02;9.13;;;8.23;;
577;SDS011;275;48.492;9.214;2024-03-25T04:25:29;9.32;;;7.88;;
577;SDS011;275;48.492;9.214;2024-03-25T04:27:57;8.73;;;6.97;;
577;SDS011;275;48.492;9.214;2024-03-25T04:30:24;10.88;;;6.75;;
577;SDS011;275;48.492;9.214;2024-03-25T04:32:51;8.65;;;6.15;;
577;SDS011;275;48.492;9.214;2024-03-25T04:35:17;8.68;;;6.10;;
577;SDS011;275;48.492;9.214;2024-03-25T04:37:44;8.15;;;5.70;;
577;SDS011;275;48.492;9.214;2024-03-25T04:40:10;8.20;;;5.73;;
577;SDS011;275;48.492;9.214;2024-03-25T04:42:37;8.57;;;5.40;;
577;SDS011;275;48.492;9.214;2024-03-25T04:45:05;7.23;;;5.73;;
577;SDS011;275;48.492;9.214;2024-03-25T04:47:31;6.30;;;5.70;;
577;SDS011;275;48.492;9.214;2024-03-25T04:49:57;6.40;;;4.47;;
577;SDS011;275;48.492;9.214;2024-03-25T04:52:23;6.90;;;5.00;;
577;SDS011;275;48.492;9.214;2024-03-25T04:54:49;7.27;;;4.80;;
577;SDS011;275;48.492;9.214;2024-03-25T04:57:15;8.75;;;4.57;;
577;SDS011;275;48.492;9.214;2024-03-25T04:59:41;5.53;;;4.20;;
577;SDS011;275;48.492;9.214;2024-03-25T05:02:08;10.67;;;5.33;;
577;SDS011;275;48.492;9.214;2024-03-25T05:04:34;7.15;;;4.15;;
577;SDS011;275;48.492;9.214;2024-03-25T05:07:00;6.35;;;4.78;;
577;SDS011;275;48.492;9.214;2024-03-25T05:09:26;5.13;;;4.03;;
577;SDS011;275;48.492;9.214;2024-03-25T05:11:52;7.97;;;5.07;;
577;SDS011;275;48.492;9.214;2024-03-25T05:14:18;7.40;;;4.83;;
577;SDS011;275;48.492;9.214;2024-03-25T05:16:44;8.10;;;4.40;;
577;SDS011;275;48.492;9.214;2024-03-25T05:19:11;8.57;;;4.20;;
577;SDS011;275;48.492;9.214;2024-03-25T05:21:37;6.63;;;4.10;;
577;SDS011;275;48.492;9.214;2024-03-25T05:24:03;7.83;;;4.33;;
577;SDS011;275;48.492;9.214;2024-03-25T05:26:29;6.32;;;4.13;;
577;SDS011;275;48.492;9.214;2024-03-25T05:28:55;8.80;;;4.53;;
577;SDS011;275;48.492;9.214;2024-03-25T05:31:22;5.65;;;4.82;;
577;SDS011;275;48.492;9.214;2024-03-25T05:33:48;7.00;;;4.82;;
577;SDS011;275;48.492;9.214;2024-03-25T05:36:15;5.93;;;4.33;;
577;SDS011;275;48.492;9.214;2024-03-25T05:38:41;8.00;;;4.28;;
577;SDS011;275;48.492;9.214;2024-03-25T05:41:07;6.07;;;4.30;;
577;SDS011;275;48.492;9.214;2024-03-25T05:43:33;7.83;;;4.87;;
577;SDS011;275;48.492;9.214;2024-03-25T05:45:59;9.48;;;4.10;;
577;SDS011;275;48.492;9.214;2024-03-25T05:48:25;6.77;;;4.50;;
577;SDS011;275;48.492;9.214;2024-03-25T05:50:58;5.20;;;4.28;;
577;SDS011;275;48.492;9.214;2024-03-25T05:53:26;6.05;;;4.30;;
577;SDS011;275;48.492;9.214;2024-03-25T05:55:52;5.00;;;3.60;;
577;SDS011;275;48.492;9.214;2024-03-25T05:58:18;8.07;;;4.63;;
577;SDS011;275;48.492;9.214;2024-03-25T06:00:46;9.20;;;7.10;;
577;SDS011;275;48.492;9.214;2024-03-25T06:03:12;8.18;;;7.03;;
577;SDS011;275;48.492;9.214;2024-03-25T06:05:38;10.53;;;8.07;;
577;SDS011;275;48.492;9.214;2024-03-25T06:08:04;11.20;;;8.03;;
577;SDS011;275;48.492;9.214;2024-03-25T06:10:35;9.55;;;8.55;;
577;SDS011;275;48.492;9.214;2024-03-25T06:13:02;10.95;;;8.88;;
577;SDS011;275;48.492;9.214;2024-03-25T06:15:28;9.45;;;7.78;;
577;SDS011;275;48.492;9.214;2024-03-25T06:17:54;10.17;;;8.90;;
577;SDS011;275;48.492;9.214;2024-03-25T06:20:20;10.20;;;8.10;;
577;SDS011;275;48.492;9.214;2024-03-25T06:22:46;10.77;;;7.50;;
577;SDS011;275;48.492;9.214;2024-03-25T06:25:12;10.60;;;7.20;;
577;SDS011;275;48.492;9.214;2024-03-25T06:27:39;9.40;;;8.50;;
577;SDS011;275;48.492;9.214;2024-03-25T06:30:06;11.23;;;7.70;;
577;SDS011;275;48.492;9.214;2024-03-25T06:32:51;8.93;;;8.05;;
577;SDS011;275;48.492;9.214;2024-03-25T06:35:35;9.82;;;7.82;;
577;SDS011;275;48.492;9.214;2024-03-25T06:38:01;9.70;;;8.47;;
577;SDS011;275;48.492;9.214;2024-03-25T06:40:27;11.63;;;9.23;;
577;SDS011;275;48.492;9.214;2024-03-25T06:42:54;10.77;;;8.37;;
577;SDS011;275;48.492;9.214;2024-03-25T06:45:20;11.80;;;9.07;;
577;SDS011;275;48.492;9.214;2024-03-25T06:47:45;8.87;;;7.97;;
577;SDS011;275;48.492;9.214;2024-03-25T06:50:11;9.10;;;7.90;;
577;SDS011;275;48.492;9.214;2024-03-25T06:52:37;11.07;;;8.13;;
577;SDS011;275;48.492;9.214;2024-03-25T06:55:03;10.13;;;7.03;;
577;SDS011;275;48.492;9.214;2024-03-25T06:57:30;9.13;;;6.90;;
577;SDS011;275;48.492;9.214;2024-03-25T06:59:57;7.97;;;6.50;;
577;SDS011;275;48.492;9.214;2024-03-25T07:02:23;8.02;;;6.50;;
577;SDS011;275;48.492;9.214;2024-03-25T07:04:49;9.77;;;7.10;;
577;SDS011;275;48.492;9.214;2024-03-25T07:07:15;8.57;;;6.47;;
577;SDS011;275;48.492;9.214;2024-03-25T07:09:41;7.73;;;6.30;;
577;SDS011;275;48.492;9.214;2024-03-25T07:12:06;9.13;;;7.00;;
577;SDS011;275;48.492;9.214;2024-03-25T07:14:32;9.30;;;6.13;;
577;SDS011;275;48.492;9.214;2024-03-25T07:17:00;8.43;;;6.60;;
577;SDS011;275;48.492;9.214;2024-03-25T07:19:26;7.05;;;5.38;;
577;SDS011;275;48.492;9.214;2024-03-25T07:21:52;6.38;;;5.20;;
577;SDS011;275;48.492;9.214;2024-03-25T07:24:17;8.63;;;6.10;;
577;SDS011;275;48.492;9.214;2024-03-25T07:26:43;9.93;;;7.20;;
577;SDS011;275;48.492;9.214;2024-03-25T07:29:09;7.67;;;4.97;;
577;SDS011;275;48.492;9.214;2024-03-25T07:31:35;9.20;;;5.20;;
577;SDS011;275;48.492;9.214;2024-03-25T07:34:02;8.87;;;4.10;;
577;SDS011;275;48.492;9.214;2024-03-25T07:36:28;9.90;;;5.40;;
577;SDS011;275;48.492;9.214;2024-03-25T07:38:54;5.73;;;4.30;;
577;SDS011;275;48.492;9.214;2024-03-25T07:41:20;8.57;;;5.10;;
577;SDS011;275;48.492;9.214;2024-03-25T07:43:46;7.80;;;4.50;;
577;SDS011;275;48.492;9.214;2024-03-25T07:46:12;6.87;;;4.70;;
577;SDS011;275;48.492;9.214;2024-03-25T07:48:38;7.27;;;4.27;;
577;SDS011;275;48.492;9.214;2024-03-25T07:51:05;7.60;;;4.43;;
577;SDS011;275;48.492;9.214;2024-03-25T07:53:31;7.35;;;3.70;;
577;SDS011;275;48.492;9.214;2024-03-25T07:55:57;9.60;;;4.50;;
577;SDS011;275;48.492;9.214;2024-03-25T07:58:22;7.03;;;4.07;;
577;SDS011;275;48.492;9.214;2024-03-25T08:00:48;4.93;;;4.07;;
577;SDS011;275;48.492;9.214;2024-03-25T08:03:14;5.47;;;3.70;;
577;SDS011;275;48.492;9.214;2024-03-25T08:05:40;9.23;;;4.67;;
577;SDS011;275;48.492;9.214;2024-03-25T08:08:07;5.70;;;3.90;;
577;SDS011;275;48.492;9.214;2024-03-25T08:10:34;5.22;;;3.95;;
577;SDS011;275;48.492;9.214;2024-03-25T08:12:59;6.63;;;4.57;;
577;SDS011;275;48.492;9.214;2024-03-25T08:15:25;6.20;;;4.10;;
577;SDS011;275;48.492;9.214;2024-03-25T08:17:51;9.40;;;4.57;;
577;SDS011;275;48.492;9.214;2024-03-25T08:20:17;7.70;;;3.70;;
577;SDS011;275;48.492;9.214;2024-03-25T08:22:43;8.13;;;3.60;;
577;SDS011;275;48.492;9.214;2024-03-25T08:25:10;5.90;;;2.97;;
577;SDS011;275;48.492;9.214;2024-03-25T08:27:36;4.13;;;2.70;;
577;SDS011;275;48.492;9.214;2024-03-25T08:30:02;6.03;;;3.27;;
577;SDS011;275;48.492;9.214;2024-03-25T08:32:29;5.67;;;3.50;;
577;SDS011;275;48.492;9.214;2024-03-25T08:34:55;6.37;;;3.77;;
577;SDS011;275;48.492;9.214;2024-03-25T08:37:20;7.80;;;2.40;;
577;SDS011;275;48.492;9.214;2024-03-25T08:39:46;8.10;;;3.17;;
577;SDS011;275;48.492;9.214;2024-03-25T08:42:14;6.10;;;3.07;;
577;SDS011;275;48.492;9.214;2024-03-25T08:44:39;6.00;;;2.70;;
577;SDS011;275;48.492;9.214;2024-03-25T08:47:05;6.40;;;2.80;;
577;SDS011;275;48.492;9.214;2024-03-25T08:49:31;4.97;;;2.90;;
577;SDS011;275;48.492;9.214;2024-03-25T08:51:57;4.80;;;2.37;;
577;SDS011;275;48.492;9.214;2024-03-25T08:54:23;8.13;;;2.70;;
577;SDS011;275;48.492;9.214;2024-03-25T08:56:49;9.10;;;2.80;;
577;SDS011;275;48.492;9.214;2024-03-25T08:59:16;6.30;;;2.53;;
577;SDS011;275;48.492;9.214;2024-03-25T09:01:42;6.50;;;2.67;;
577;SDS011;275;48.492;9.214;2024-03-25T09:04:08;4.50;;;2.67;;
577;SDS011;275;48.492;9.214;2024-03-25T09:06:34;4.87;;;2.57;;
577;SDS011;275;48.492;9.214;2024-03-25T09:09:00;8.60;;;2.87;;
577;SDS011;275;48.492;9.214;2024-03-25T09:11:44;7.67;;;3.30;;
577;SDS011;275;48.492;9.214;2024-03-25T09:14:10;6.13;;;3.37;;
577;SDS011;275;48.492;9.214;2024-03-25T09:16:37;5.07;;;3.00;;
577;SDS011;275;48.492;9.214;2024-03-25T09:19:03;3.97;;;2.40;;
577;SDS011;275;48.492;9.214;2024-03-25T09:23:56;7.43;;;2.60;;
577;SDS011;275;48.492;9.214;2024-03-25T09:26:22;5.90;;;2.53;;
577;SDS011;275;48.492;9.214;2024-03-25T09:28:48;5.63;;;2.50;;
577;SDS011;275;48.492;9.214;2024-03-25T09:31:14;5.50;;;2.67;;
577;SDS011;275;48.492;9.214;2024-03-25T09:33:41;7.80;;;3.10;;
577;SDS011;275;48.492;9.214;2024-03-25T09:36:07;7.50;;;2.80;;
577;SDS011;275;48.492;9.214;2024-03-25T09:38:33;6.43;;;3.00;;
577;SDS011;275;48.492;9.214;2024-03-25T09:40:59;5.10;;;2.43;;
577;SDS011;275;48.492;9.214;2024-03-25T09:43:27;5.17;;;2.37;;
577;SDS011;275;48.492;9.214;2024-03-25T09:45:57;5.23;;;2.90;;
577;SDS011;275;48.492;9.214;2024-03-25T09:48:24;4.33;;;2.40;;
577;SDS011;275;48.492;9.214;2024-03-25T09:50:52;7.20;;;2.57;;
577;SDS011;275;48.492;9.214;2024-03-25T09:53:18;6.00;;;2.70;;
577;SDS011;275;48.492;9.214;2024-03-25T09:55:44;5.87;;;2.50;;
577;SDS011;275;48.492;9.214;2024-03-25T09:58:12;4.57;;;2.77;;
577;SDS011;275;48.492;9.214;2024-03-25T10:00:39;4.90;;;2.63;;
577;SDS011;275;48.492;9.214;2024-03-25T10:03:05;5.10;;;2.40;;
577;SDS011;275;48.492;9.214;2024-03-25T10:05:31;4.53;;;2.50;;
577;SDS011;275;48.492;9.214;2024-03-25T10:07:58;6.07;;;2.30;;
577;SDS011;275;48.492;9.214;2024-03-25T10:10:25;5.63;;;2.43;;
577;SDS011;275;48.492;9.214;2024-03-25T10:12:51;5.73;;;2.23;;
577;SDS011;275;48.492;9.214;2024-03-25T10:15:20;4.73;;;2.20;;
577;SDS011;275;48.492;9.214;2024-03-25T10:17:48;4.33;;;2.27;;
577;SDS011;275;48.492;9.214;2024-03-25T10:20:14;5.00;;;2.30;;
577;SDS011;275;48.492;9.214;2024-03-25T10:22:41;4.87;;;2.13;;
577;SDS011;275;48.492;9.214;2024-03-25T10:25:18;5.53;;;2.57;;
577;SDS011;275;48.492;9.214;2024-03-25T10:27:52;5.00;;;2.20;;
577;SDS011;275;48.492;9.214;2024-03-25T10:30:19;5.23;;;2.70;;
577;SDS011;275;48.492;9.214;2024-03-25T10:32:45;4.33;;;2.57;;
577;SDS011;275;48.492;9.214;2024-03-25T10:35:11;5.57;;;2.50;;
577;SDS011;275;48.492;9.214;2024-03-25T10:37:38;6.07;;;2.93;;
577;SDS011;275;48.492;9.214;2024-03-25T10:40:05;4.40;;;2.20;;
577;SDS011;275;48.492;9.214;2024-03-25T10:42:36;5.43;;;2.90;;
577;SDS011;275;48.492;9.214;2024-03-25T10:45:08;5.63;;;2.77;;
577;SDS011;275;48.492;9.214;2024-03-25T10:47:35;4.67;;;2.53;;
577;SDS011;275;48.492;9.214;2024-03-25T10:50:04;5.00;;;2.60;;
577;SDS011;275;48.492;9.214;2024-03-25T10:52:34;4.70;;;2.23;;
577;SDS011;275;48.492;9.214;2024-03-25T10:55:01;4.47;;;2.33;;
577;SDS011;275;48.492;9.214;2024-03-25T10:57:30;6.60;;;2.53;;
577;SDS011;275;48.492;9.214;2024-03-25T10:59:56;4.47;;;2.47;;
577;SDS011;275;48.492;9.214;2024-03-25T11:02:22;5.80;;;2.50;;
577;SDS011;275;48.492;9.214;2024-03-25T11:04:49;5.97;;;2.83;;
577;SDS011;275;48.492;9.214;2024-03-25T11:07:16;4.37;;;1.90;;
577;SDS011;275;48.492;9.214;2024-03-25T11:09:42;4.50;;;2.57;;
577;SDS011;275;48.492;9.214;2024-03-25T11:12:09;5.43;;;2.57;;
577;SDS011;275;48.492;9.214;2024-03-25T11:14:37;6.60;;;2.70;;
577;SDS011;275;48.492;9.214;2024-03-25T11:17:13;4.87;;;2.70;;
577;SDS011;275;48.492;9.214;2024-03-25T11:19:40;5.63;;;2.63;;
577;SDS011;275;48.492;9.214;2024-03-25T11:22:07;5.50;;;2.47;;
577;SDS011;275;48.492;9.214;2024-03-25T11:24:34;6.37;;;3.03;;
577;SDS011;275;48.492;9.214;2024-03-25T11:27:01;5.43;;;2.47;;
577;SDS011;275;48.492;9.214;2024-03-25T11:29:27;5.53;;;2.57;;
577;SDS011;275;48.492;9.214;2024-03-25T11:31:54;4.07;;;2.30;;
577;SDS011;275;48.492;9.214;2024-03-25T11:34:24;4.13;;;2.40;;
577;SDS011;275;48.492;9.214;2024-03-25T11:36:50;4.13;;;2.00;;
577;SDS011;275;48.492;9.214;2024-03-25T11:39:16;4.80;;;2.33;;
577;SDS011;275;48.492;9.214;2024-03-25T11:41:42;5.13;;;2.67;;
577;SDS011;275;48.492;9.214;2024-03-25T11:44:08;3.53;;;2.30;;
577;SDS011;275;48.492;9.214;2024-03-25T11:46:36;3.33;;;2.07;;
577;SDS011;275;48.492;9.214;2024-03-25T11:49:04;4.83;;;2.93;;
577;SDS011;275;48.492;9.214;2024-03-25T11:51:31;5.50;;;2.67;;
577;SDS011;275;48.492;9.214;2024-03-25T11:53:57;4.43;;;2.40;;
577;SDS011;275;48.492;9.214;2024-03-25T11:56:23;3.57;;;2.47;;
577;SDS011;275;48.492;9.214;2024-03-25T11:58:49;5.43;;;2.00;;
577;SDS011;275;48.492;9.214;2024-03-25T12:01:18;4.00;;;2.28;;
577;SDS011;275;48.492;9.214;2024-03-25T12:03:47;3.37;;;2.23;;
577;SDS011;275;48.492;9.214;2024-03-25T12:06:17;4.40;;;2.50;;
577;SDS011;275;48.492;9.214;2024-03-25T12:08:43;3.67;;;1.90;;
577;SDS011;275;48.492;9.214;2024-03-25T12:11:09;3.30;;;2.00;;
577;SDS011;275;48.492;9.214;2024-03-25T12:13:44;4.10;;;2.30;;
577;SDS011;275;48.492;9.214;2024-03-25T12:16:10;4.27;;;2.20;;
577;SDS011;275;48.492;9.214;2024-03-25T12:18:40;3.63;;;2.40;;
577;SDS011;275;48.492;9.214;2024-03-25T12:21:06;4.77;;;2.20;;
577;SDS011;275;48.492;9.214;2024-03-25T12:23:33;3.37;;;1.90;;
577;SDS011;275;48.492;9.214;2024-03-25T12:25:59;3.60;;;1.70;;
577;SDS011;275;48.492;9.214;2024-03-25T12:28:26;4.30;;;1.53;;
577;SDS011;275;48.492;9.214;2024-03-25T12:30:52;4.53;;;1.57;;
577;SDS011;275;48.492;9.214;2024-03-25T12:33:19;4.73;;;2.30;;
577;SDS011;275;48.492;9.214;2024-03-25T12:35:45;4.30;;;1.90;;
577;SDS011;275;48.492;9.214;2024-03-25T12:38:21;4.23;;;2.07;;
577;SDS011;275;48.492;9.214;2024-03-25T12:40:51;4.93;;;2.20;;
577;SDS011;275;48.492;9.214;2024-03-25T12:43:18;6.07;;;2.50;;
577;SDS011;275;48.492;9.214;2024-03-25T12:45:44;3.37;;;1.70;;
577;SDS011;275;48.492;9.214;2024-03-25T12:48:10;4.77;;;1.80;;
577;SDS011;275;48.492;9.214;2024-03-25T12:50:36;4.30;;;1.63;;
577;SDS011;275;48.492;9.214;2024-03-25T12:53:03;4.97;;;2.40;;
577;SDS011;275;48.492;9.214;2024-03-25T12:55:29;3.23;;;1.40;;
577;SDS011;275;48.492;9.214;2024-03-25T12:57:57;3.30;;;1.70;;
577;SDS011;275;48.492;9.214;2024-03-25T13:00:23;4.10;;;1.67;;
577;SDS011;275;48.492;9.214;2024-03-25T13:02:49;4.67;;;1.93;;
577;SDS011;275;48.492;9.214;2024-03-25T13:05:15;3.77;;;1.50;;
577;SDS011;275;48.492;9.214;2024-03-25T13:07:41;3.53;;;1.33;;
577;SDS011;275;48.492;9.214;2024-03-25T13:10:07;3.30;;;1.40;;
577;SDS011;275;48.492;9.214;2024-03-25T13:12:33;3.40;;;1.53;;
577;SDS011;275;48.492;9.214;2024-03-25T13:15:01;3.60;;;1.30;;
577;SDS011;275;48.492;9.214;2024-03-25T13:17:27;5.43;;;2.17;;
577;SDS011;275;48.492;9.214;2024-03-25T13:19:52;4.60;;;1.87;;
577;SDS011;275;48.492;9.214;2024-03-25T13:22:18;3.03;;;1.10;;
577;SDS011;275;48.492;9.214;2024-03-25T13:24:44;3.00;;;1.10;;
577;SDS011;275;48.492;9.214;2024-03-25T13:27:10;3.03;;;1.40;;
577;SDS011;275;48.492;9.214;2024-03-25T13:29:36;3.70;;;1.30;;
577;SDS011;275;48.492;9.214;2024-03-25T13:32:03;3.10;;;1.60;;
577;SDS011;275;48.492;9.214;2024-03-25T13:34:29;3.23;;;1.40;;
577;SDS011;275;48.492;9.214;2024-03-25T13:36:55;4.20;;;1.57;;
577;SDS011;275;48.492;9.214;2024-03-25T13:39:21;3.77;;;1.80;;
577;SDS011;275;48.492;9.214;2024-03-25T13:41:47;3.83;;;1.37;;
577;SDS011;275;48.492;9.214;2024-03-25T13:44:13;3.20;;;1.50;;
577;SDS011;275;48.492;9.214;2024-03-25T13:46:40;3.13;;;1.37;;
577;SDS011;275;48.492;9.214;2024-03-25T13:49:07;3.47;;;1.53;;
577;SDS011;275;48.492;9.214;2024-03-25T13:51:33;3.50;;;1.60;;
577;SDS011;275;48.492;9.214;2024-03-25T13:53:59;3.90;;;1.90;;
577;SDS011;275;48.492;9.214;2024-03-25T13:56:24;4.37;;;1.80;;
577;SDS011;275;48.492;9.214;2024-03-25T13:58:50;5.27;;;1.60;;
577;SDS011;275;48.492;9.214;2024-03-25T14:01:16;3.60;;;1.60;;
577;SDS011;275;48.492;9.214;2024-03-25T14:03:42;3.20;;;1.53;;
577;SDS011;275;48.492;9.214;2024-03-25T14:06:12;3.67;;;1.83;;
577;SDS011;275;48.492;9.214;2024-03-25T14:08:38;3.70;;;1.93;;
577;SDS011;275;48.492;9.214;2024-03-25T14:11:04;3.00;;;1.40;;
577;SDS011;275;48.492;9.214;2024-03-25T14:13:30;3.77;;;1.80;;
577;SDS011;275;48.492;9.214;2024-03-25T14:15:56;3.80;;;1.33;;
577;SDS011;275;48.492;9.214;2024-03-25T14:18:22;3.47;;;1.77;;
577;SDS011;275;48.492;9.214;2024-03-25T14:20:49;3.13;;;1.60;;
577;SDS011;275;48.492;9.214;2024-03-25T14:23:18;3.33;;;1.73;;
577;SDS011;275;48.492;9.214;2024-03-25T14:25:44;4.60;;;1.57;;
577;SDS011;275;48.492;9.214;2024-03-25T14:28:10;2.90;;;1.60;;
577;SDS011;275;48.492;9.214;2024-03-25T14:30:36;5.20;;;2.00;;
577;SDS011;275;48.492;9.214;2024-03-25T14:33:02;4.10;;;2.00;;
577;SDS011;275;48.492;9.214;2024-03-25T14:35:28;3.40;;;2.20;;
577;SDS011;275;48.492;9.214;2024-03-25T14:37:54;3.60;;;1.90;;
577;SDS011;275;48.492;9.214;2024-03-25T14:40:21;3.60;;;1.60;;
577;SDS011;275;48.492;9.214;2024-03-25T14:42:49;5.77;;;2.63;;
577;SDS011;275;48.492;9.214;2024-03-25T14:45:15;4.00;;;1.93;;
577;SDS011;275;48.492;9.214;2024-03-25T14:47:41;3.50;;;1.80;;
577;SDS011;275;48.492;9.214;2024-03-25T14:50:07;4.20;;;1.60;;
577;SDS011;275;48.492;9.214;2024-03-25T14:52:33;2.70;;;1.40;;
577;SDS011;275;48.492;9.214;2024-03-25T14:54:59;3.43;;;1.93;;
577;SDS011;275;48.492;9.214;2024-03-25T14:57:26;3.00;;;1.43;;
577;SDS011;275;48.492;9.214;2024-03-25T14:59:52;3.03;;;1.53;;
577;SDS011;275;48.492;9.214;2024-03-25T15:02:18;4.00;;;2.30;;
577;SDS011;275;48.492;9.214;2024-03-25T15:04:46;2.80;;;1.60;;
577;SDS011;275;48.492;9.214;2024-03-25T15:07:12;3.50;;;1.97;;
577;SDS011;275;48.492;9.214;2024-03-25T15:09:38;3.33;;;2.00;;
577;SDS011;275;48.492;9.214;2024-03-25T15:12:07;3.63;;;1.60;;
577;SDS011;275;48.492;9.214;2024-03-25T15:14:35;3.37;;;2.07;;
577;SDS011;275;48.492;9.214;2024-03-25T15:17:01;4.43;;;2.67;;
577;SDS011;275;48.492;9.214;2024-03-25T15:19:27;7.30;;;2.47;;
577;SDS011;275;48.492;9.214;2024-03-25T15:21:53;4.80;;;2.37;;
577;SDS011;275;48.492;9.214;2024-03-25T15:24:19;5.93;;;2.20;;
577;SDS011;275;48.492;9.214;2024-03-25T15:26:45;3.77;;;1.77;;
577;SDS011;275;48.492;9.214;2024-03-25T15:29:10;4.00;;;2.10;;
577;SDS011;275;48.492;9.214;2024-03-25T15:31:38;3.73;;;2.00;;
577;SDS011;275;48.492;9.214;2024-03-25T15:34:04;4.23;;;2.17;;
577;SDS011;275;48.492;9.214;2024-03-25T15:36:30;3.90;;;2.20;;
577;SDS011;275;48.492;9.214;2024-03-25T15:38:55;4.23;;;2.90;;
577;SDS011;275;48.492;9.214;2024-03-25T15:41:21;3.90;;;2.30;;
577;SDS011;275;48.492;9.214;2024-03-25T15:43:50;3.93;;;2.20;;